Time;durP1;ratioP1;P1;durP2;ratioP2;P2;SDS_P1;SDS_P2;PMS_P1;PMS_P2;Temp;Humidity;BMP_temperature;BMP_pressure;BME280_temperature;BME280_humidity;BME280_pressure;Samples;Min_cycle;Max_cycle;Signal;HPM_P1;HPM_P2
2022/01/09 00:01:15;;;;;;;7.35;5.90;;;;;;;0.81;78.97;99005.16;4946382;28;20166;-23
2022/01/09 00:03:41;;;;;;;5.72;5.15;;;;;;;0.80;79.39;98993.88;4952126;28;20035;-22
2022/01/09 00:06:06;;;;;;;5.25;4.70;;;;;;;0.80;78.75;98986.09;4947908;28;20034;-22
2022/01/09 00:08:32;;;;;;;6.10;5.07;;;;;;;0.80;78.83;98980.91;4948568;28;20059;-22
2022/01/09 00:10:58;;;;;;;9.50;5.10;;;;;;;0.79;79.20;98968.81;4947290;28;20071;-23
2022/01/09 00:13:23;;;;;;;5.20;4.70;;;;;;;0.80;79.03;98970.53;4949700;28;20492;-23
2022/01/09 00:15:49;;;;;;;6.20;4.15;;;;;;;0.80;79.12;98959.31;4948230;28;20027;-22
2022/01/09 00:18:14;;;;;;;6.07;4.10;;;;;;;0.80;78.90;98949.75;4949285;28;20298;-23
2022/01/09 00:20:40;;;;;;;7.60;4.30;;;;;;;0.79;79.16;98947.16;4950185;28;20042;-23
2022/01/09 00:23:06;;;;;;;6.68;4.80;;;;;;;0.77;78.81;98939.41;4945833;28;20031;-22
2022/01/09 00:25:31;;;;;;;6.18;4.30;;;;;;;0.80;78.86;98943.72;4932751;29;20042;-21
2022/01/09 00:27:57;;;;;;;5.07;4.10;;;;;;;0.77;78.74;98934.22;4948785;28;20478;-22
2022/01/09 00:30:23;;;;;;;4.88;4.07;;;;;;;0.77;78.88;98934.22;4948523;28;20035;-22
2022/01/09 00:32:51;;;;;;;7.78;4.32;;;;;;;0.77;79.06;98924.69;4947884;28;20506;-23
2022/01/09 00:35:17;;;;;;;5.05;4.55;;;;;;;0.73;79.34;98917.75;4949623;28;20023;-22
2022/01/09 00:37:42;;;;;;;7.28;4.65;;;;;;;0.78;79.15;98920.34;4946881;28;20043;-22
2022/01/09 00:40:10;;;;;;;6.25;4.35;;;;;;;0.77;78.97;98914.28;4949070;28;20031;-22
2022/01/09 00:42:36;;;;;;;5.13;4.18;;;;;;;0.77;79.14;98903.06;4950558;29;20515;-22
2022/01/09 00:45:03;;;;;;;5.28;4.47;;;;;;;0.78;79.13;98907.38;4951094;28;20061;-21
2022/01/09 00:47:29;;;;;;;5.18;4.13;;;;;;;0.74;78.97;98901.31;4947856;28;20512;-22
2022/01/09 00:49:54;;;;;;;6.35;4.20;;;;;;;0.77;79.05;98897.88;4951217;28;20023;-20
2022/01/09 00:52:20;;;;;;;6.13;4.80;;;;;;;0.78;79.35;98899.59;4950398;28;20026;-22
2022/01/09 00:54:45;;;;;;;5.40;4.00;;;;;;;0.77;78.67;98895.28;4948572;28;20458;-23
2022/01/09 00:57:11;;;;;;;5.63;4.60;;;;;;;0.76;79.14;98880.53;4947884;28;20031;-22
2022/01/09 00:59:36;;;;;;;5.90;4.32;;;;;;;0.75;79.17;98884.00;4948501;28;20038;-21
2022/01/09 01:02:02;;;;;;;6.18;4.43;;;;;;;0.75;78.78;98878.81;4949432;28;20031;-23
2022/01/09 01:04:28;;;;;;;6.63;5.28;;;;;;;0.76;78.49;98881.44;4945343;28;20421;-22
2022/01/09 01:06:53;;;;;;;6.25;4.43;;;;;;;0.75;78.80;98874.50;4942593;29;20075;-22
2022/01/09 01:09:23;;;;;;;5.47;4.65;;;;;;;0.77;79.12;98871.91;4949626;28;20046;-22
2022/01/09 01:11:49;;;;;;;5.47;4.50;;;;;;;0.75;78.66;98865.84;4950807;28;20027;-22
2022/01/09 01:14:15;;;;;;;4.95;4.45;;;;;;;0.74;78.65;98861.53;4948638;28;20372;-22
2022/01/09 01:16:41;;;;;;;6.15;4.35;;;;;;;0.75;78.82;98853.75;4951144;28;20046;-23
2022/01/09 01:19:07;;;;;;;5.82;4.95;;;;;;;0.75;78.69;98858.06;4950929;28;20394;-22
2022/01/09 01:21:33;;;;;;;7.97;4.85;;;;;;;0.75;78.53;98860.66;4950583;28;20117;-22
2022/01/09 01:23:59;;;;;;;5.97;4.88;;;;;;;0.75;78.90;98850.28;4951037;28;20042;-22
2022/01/09 01:26:24;;;;;;;5.82;4.75;;;;;;;0.74;78.40;98845.97;4948411;29;20031;-23
2022/01/09 01:28:50;;;;;;;5.75;4.78;;;;;;;0.74;78.47;98839.00;4949571;29;20593;-22
2022/01/09 01:31:15;;;;;;;7.82;4.47;;;;;;;0.75;79.12;98834.69;4946922;28;20027;-22
2022/01/09 01:33:41;;;;;;;7.15;4.93;;;;;;;0.72;78.67;98829.50;4950212;29;20126;-23
2022/01/09 01:36:06;;;;;;;5.25;4.18;;;;;;;0.75;78.84;98821.72;4950021;28;20026;-23
2022/01/09 01:38:33;;;;;;;5.57;4.72;;;;;;;0.74;78.63;98820.84;4949402;28;20052;-23
2022/01/09 01:40:58;;;;;;;5.57;4.70;;;;;;;0.74;78.67;98814.81;4950838;28;20030;-28
2022/01/09 01:43:25;;;;;;;5.95;5.00;;;;;;;0.74;78.98;98809.63;4948827;28;20674;-23
2022/01/09 01:45:50;;;;;;;7.47;4.97;;;;;;;0.71;78.72;98805.31;4949918;28;20422;-20
2022/01/09 01:48:16;;;;;;;5.30;4.20;;;;;;;0.72;78.91;98795.75;4950220;28;20166;-22
2022/01/09 01:50:42;;;;;;;6.10;4.10;;;;;;;0.73;78.94;98792.31;4950082;28;20110;-22
2022/01/09 01:53:14;;;;;;;6.20;4.82;;;;;;;0.73;79.07;98795.78;4949066;28;20082;-22
2022/01/09 01:55:41;;;;;;;6.43;4.35;;;;;;;0.74;78.99;98788.88;4963473;28;20178;-21
2022/01/09 01:58:10;;;;;;;5.75;4.70;;;;;;;0.75;78.82;98790.59;4949499;28;20031;-22
2022/01/09 02:00:36;;;;;;;5.63;4.20;;;;;;;0.75;78.35;98788.00;4948973;28;20442;-21
2022/01/09 02:03:03;;;;;;;5.18;4.20;;;;;;;0.74;78.51;98781.06;4974573;28;20033;-21
2022/01/09 02:05:28;;;;;;;5.97;4.05;;;;;;;0.75;78.68;98780.19;4949441;28;20031;-22
2022/01/09 02:07:56;;;;;;;6.15;4.38;;;;;;;0.76;78.81;98779.31;4943918;28;20066;-21
2022/01/09 02:10:22;;;;;;;7.25;4.97;;;;;;;0.71;78.99;98778.47;4945528;28;20027;-21
2022/01/09 02:12:50;;;;;;;5.57;4.43;;;;;;;0.75;79.08;98773.28;4945078;28;20037;-21
2022/01/09 02:15:35;;;;;;;5.47;4.25;;;;;;;0.77;78.77;98770.69;4948657;28;20534;-21
2022/01/09 02:18:22;;;;;;;5.50;4.53;;;;;;;0.76;79.11;98771.53;4946859;28;20037;-21
2022/01/09 02:20:49;;;;;;;6.55;4.90;;;;;;;0.77;78.73;98775.91;4945718;28;20092;-21
2022/01/09 02:23:16;;;;;;;6.18;4.90;;;;;;;0.77;78.91;98768.94;4946039;29;20549;-21
2022/01/09 02:25:43;;;;;;;5.35;4.82;;;;;;;0.75;78.82;98773.28;4946387;28;20037;-22
2022/01/09 02:28:10;;;;;;;5.10;4.55;;;;;;;0.78;78.71;98764.63;4946651;29;20047;-21
2022/01/09 02:30:35;;;;;;;6.07;4.85;;;;;;;0.78;78.83;98769.81;4950718;28;20034;-21
2022/01/09 02:33:03;;;;;;;6.57;5.28;;;;;;;0.78;79.07;98756.84;4946484;28;20028;-21
2022/01/09 02:35:29;;;;;;;6.75;4.90;;;;;;;0.76;79.03;98755.97;4948234;28;20023;-21
2022/01/09 02:37:55;;;;;;;7.07;4.55;;;;;;;0.79;78.96;98755.09;4947206;28;20030;-21
2022/01/09 02:40:22;;;;;;;5.25;4.75;;;;;;;0.79;78.97;98743.00;4947996;28;20027;-21
2022/01/09 02:42:49;;;;;;;6.93;5.00;;;;;;;0.79;79.00;98737.81;4946192;28;20053;-21
2022/01/09 02:45:18;;;;;;;6.43;4.57;;;;;;;0.80;78.97;98726.56;4949804;28;20038;-21
2022/01/09 02:47:43;;;;;;;6.07;4.72;;;;;;;0.79;79.26;98724.84;4945677;28;20024;-21
2022/01/09 02:50:29;;;;;;;8.18;5.13;;;;;;;0.81;79.32;98727.44;4947643;28;20039;-21
2022/01/09 02:52:56;;;;;;;7.35;5.35;;;;;;;0.80;78.95;98716.16;4944370;28;20158;-21
2022/01/09 02:55:23;;;;;;;5.65;4.90;;;;;;;0.80;79.20;98716.16;4947483;28;20036;-21
2022/01/09 02:57:51;;;;;;;5.70;4.85;;;;;;;0.81;79.06;98711.84;4949224;28;20028;-21
2022/01/09 03:00:22;;;;;;;5.75;4.90;;;;;;;0.81;78.96;98706.66;4945814;28;20382;-21
2022/01/09 03:02:48;;;;;;;7.05;5.03;;;;;;;0.80;79.39;98703.19;4948606;28;20326;-21
2022/01/09 03:05:14;;;;;;;5.90;5.20;;;;;;;0.81;79.05;98702.34;4950649;28;20027;-21
2022/01/09 03:07:41;;;;;;;6.05;5.35;;;;;;;0.81;78.88;98686.78;4947923;28;20082;-21
2022/01/09 03:10:07;;;;;;;6.47;5.70;;;;;;;0.81;79.12;98691.09;4948681;28;20513;-21
2022/01/09 03:12:33;;;;;;;7.03;5.30;;;;;;;0.80;79.34;98685.03;4949320;28;20063;-21
2022/01/09 03:14:59;;;;;;;7.40;5.25;;;;;;;0.81;79.28;98683.31;4951203;28;20580;-21
2022/01/09 03:17:25;;;;;;;6.63;4.95;;;;;;;0.80;79.39;98686.78;4953416;28;20046;-21
2022/01/09 03:19:51;;;;;;;6.90;5.85;;;;;;;0.81;79.01;98688.50;4951928;28;20016;-21
2022/01/09 03:22:16;;;;;;;8.02;5.13;;;;;;;0.81;79.08;98686.78;4950816;28;20050;-21
2022/01/09 03:24:42;;;;;;;7.05;5.15;;;;;;;0.79;79.03;98672.94;4950481;28;20027;-21
2022/01/09 03:27:11;;;;;;;6.45;5.45;;;;;;;0.81;79.32;98676.41;4951214;28;20101;-21
2022/01/09 03:29:38;;;;;;;7.20;5.38;;;;;;;0.78;79.21;98671.19;4965809;28;20042;-21
2022/01/09 03:32:05;;;;;;;9.38;5.30;;;;;;;0.81;79.11;98666.00;4943436;28;20027;-21
2022/01/09 03:34:30;;;;;;;6.88;5.43;;;;;;;0.82;79.60;98666.84;4950086;28;20429;-21
2022/01/09 03:36:56;;;;;;;6.72;5.22;;;;;;;0.79;79.28;98657.34;4951385;28;20023;-21
2022/01/09 03:39:21;;;;;;;6.82;5.55;;;;;;;0.81;79.19;98652.16;4951703;28;20027;-21
2022/01/09 03:41:47;;;;;;;7.93;5.65;;;;;;;0.81;79.39;98654.75;4950430;28;20460;-21
2022/01/09 03:44:12;;;;;;;6.32;5.57;;;;;;;0.80;79.48;98645.25;4952555;28;20039;-21
2022/01/09 03:46:38;;;;;;;8.23;5.43;;;;;;;0.81;79.58;98641.78;4946372;28;20553;-21
2022/01/09 03:49:03;;;;;;;6.30;5.13;;;;;;;0.80;79.30;98640.91;4951490;28;20045;-21
2022/01/09 03:51:33;;;;;;;5.93;5.20;;;;;;;0.80;79.43;98638.31;4948341;28;20031;-22
2022/01/09 03:53:59;;;;;;;6.25;4.97;;;;;;;0.81;79.44;98644.38;4964901;28;20024;-21
2022/01/09 03:56:25;;;;;;;6.85;4.72;;;;;;;0.81;79.51;98649.56;4950432;28;20072;-21
2022/01/09 03:58:51;;;;;;;5.28;4.78;;;;;;;0.80;79.61;98643.50;4942119;28;20127;-21
2022/01/09 04:01:16;;;;;;;7.28;5.68;;;;;;;0.81;79.67;98642.66;4940072;28;20773;-21
2022/01/09 04:03:42;;;;;;;10.90;6.07;;;;;;;0.80;79.36;98638.31;4947852;28;20038;-21
2022/01/09 04:06:07;;;;;;;7.07;6.22;;;;;;;0.80;79.35;98632.28;4949715;28;20027;-21
2022/01/09 04:08:34;;;;;;;7.20;5.50;;;;;;;0.82;79.38;98638.31;4950113;28;20031;-21
2022/01/09 04:11:02;;;;;;;5.95;4.93;;;;;;;0.81;79.55;98640.06;4950315;28;20027;-21
2022/01/09 04:13:28;;;;;;;6.50;5.47;;;;;;;0.81;79.69;98631.41;4950164;28;20031;-21
2022/01/09 04:15:53;;;;;;;6.10;5.50;;;;;;;0.80;79.69;98620.16;4951043;28;20541;-21
2022/01/09 04:18:23;;;;;;;6.35;5.75;;;;;;;0.81;79.43;98627.09;4949762;28;20035;-21
2022/01/09 04:20:50;;;;;;;6.07;5.47;;;;;;;0.81;79.57;98619.28;4950817;28;20026;-21
2022/01/09 04:23:16;;;;;;;6.57;5.65;;;;;;;0.81;79.79;98619.28;4947953;28;20393;-21
2022/01/09 04:25:42;;;;;;;7.47;5.75;;;;;;;0.81;79.60;98616.69;4952001;28;20031;-21
2022/01/09 04:28:08;;;;;;;6.10;5.50;;;;;;;0.79;79.73;98610.63;4947888;28;20118;-21
2022/01/09 04:30:34;;;;;;;7.20;5.90;;;;;;;0.80;79.55;98609.75;4949250;28;20157;-21
2022/01/09 04:32:59;;;;;;;6.35;5.63;;;;;;;0.82;79.82;98617.53;4947703;28;20146;-21
2022/01/09 04:35:25;;;;;;;6.47;5.75;;;;;;;0.80;79.50;98607.16;4948675;28;20446;-21
2022/01/09 04:37:52;;;;;;;8.15;5.60;;;;;;;0.81;79.53;98611.50;4949288;29;20094;-21
2022/01/09 04:40:19;;;;;;;7.35;6.18;;;;;;;0.82;79.64;98614.94;4951462;28;20031;-21
2022/01/09 04:42:48;;;;;;;6.43;5.03;;;;;;;0.81;79.95;98613.22;4948123;28;20023;-21
2022/01/09 04:45:16;;;;;;;6.40;5.72;;;;;;;0.82;79.47;98612.34;4952081;28;20023;-21
2022/01/09 04:47:45;;;;;;;10.02;5.88;;;;;;;0.81;80.07;98606.31;4949848;28;20401;-21
2022/01/09 04:50:16;;;;;;;9.27;5.72;;;;;;;0.83;80.01;98606.31;4946296;28;20548;-21
2022/01/09 04:52:43;;;;;;;8.43;5.55;;;;;;;0.81;79.66;98608.91;4948595;28;20778;-21
2022/01/09 04:55:09;;;;;;;6.35;5.25;;;;;;;0.83;80.01;98612.34;4947061;29;20094;-21
2022/01/09 04:57:35;;;;;;;8.77;5.45;;;;;;;0.83;79.52;98611.50;4949975;28;20024;-21
2022/01/09 05:00:00;;;;;;;6.82;5.70;;;;;;;0.83;80.03;98607.16;4950661;29;20027;-21
2022/01/09 05:02:26;;;;;;;7.30;5.10;;;;;;;0.83;79.88;98601.13;4944378;28;20151;-21
2022/01/09 05:04:51;;;;;;;6.10;5.15;;;;;;;0.84;79.74;98600.25;4933191;28;20037;-21
2022/01/09 05:07:17;;;;;;;6.05;5.45;;;;;;;0.84;80.14;98603.69;4948473;28;20490;-21
2022/01/09 05:09:42;;;;;;;6.90;5.18;;;;;;;0.83;79.76;98609.75;4948645;28;20070;-21
2022/01/09 05:12:09;;;;;;;5.63;5.03;;;;;;;0.85;80.08;98610.63;4948244;28;20478;-21
2022/01/09 05:14:34;;;;;;;5.28;4.78;;;;;;;0.85;80.00;98605.44;4950453;29;20046;-21
2022/01/09 05:17:00;;;;;;;6.57;5.07;;;;;;;0.83;80.18;98604.56;4947791;28;20038;-21
2022/01/09 05:19:29;;;;;;;7.20;5.28;;;;;;;0.86;80.33;98607.16;4949502;28;20031;-21
2022/01/09 05:21:57;;;;;;;6.35;4.93;;;;;;;0.86;79.76;98604.56;4947721;28;20059;-21
2022/01/09 05:24:22;;;;;;;6.47;5.45;;;;;;;0.88;80.04;98615.81;4947352;28;20374;-21
2022/01/09 05:26:48;;;;;;;6.80;5.47;;;;;;;0.88;79.78;98608.03;4950093;28;20552;-21
2022/01/09 05:29:13;;;;;;;6.10;4.82;;;;;;;0.87;80.21;98606.28;4947919;28;20626;-21
2022/01/09 05:31:40;;;;;;;6.15;5.53;;;;;;;0.89;79.98;98607.16;4948057;28;20245;-21
2022/01/09 05:34:06;;;;;;;6.78;5.50;;;;;;;0.88;79.91;98605.44;4948652;28;20110;-21
2022/01/09 05:36:31;;;;;;;5.35;4.85;;;;;;;0.87;79.73;98602.84;4948017;28;20038;-21
2022/01/09 05:38:57;;;;;;;5.00;4.45;;;;;;;0.91;80.01;98614.94;4946947;28;20122;-21
2022/01/09 05:41:23;;;;;;;7.15;5.50;;;;;;;0.89;80.35;98601.09;4943828;28;20031;-21
2022/01/09 05:43:48;;;;;;;6.18;5.38;;;;;;;0.92;79.96;98608.88;4949354;28;20046;-21
2022/01/09 05:46:14;;;;;;;5.22;4.72;;;;;;;0.93;80.25;98612.34;4945801;28;20042;-21
2022/01/09 05:48:39;;;;;;;5.15;4.60;;;;;;;0.93;80.13;98609.75;4947693;28;20489;-21
2022/01/09 05:51:05;;;;;;;7.10;5.43;;;;;;;0.94;79.75;98608.88;4945105;28;20105;-21
2022/01/09 05:53:30;;;;;;;5.95;4.63;;;;;;;0.94;80.18;98604.56;4948990;28;20031;-21
2022/01/09 05:55:56;;;;;;;6.88;5.18;;;;;;;0.96;80.32;98607.13;4948533;28;20023;-21
2022/01/09 05:58:22;;;;;;;5.85;4.60;;;;;;;0.95;80.03;98603.69;4948073;28;20079;-21
2022/01/09 06:00:47;;;;;;;5.38;4.55;;;;;;;0.94;80.27;98604.56;4949486;28;20031;-21
2022/01/09 06:03:13;;;;;;;4.63;4.22;;;;;;;0.96;80.11;98609.72;4944189;28;20375;-21
2022/01/09 06:05:38;;;;;;;5.25;4.47;;;;;;;0.98;79.96;98615.78;4947455;28;20405;-21
2022/01/09 06:08:04;;;;;;;5.78;4.97;;;;;;;0.97;80.16;98607.13;4948379;28;20490;-21
2022/01/09 06:10:30;;;;;;;5.72;4.57;;;;;;;0.99;80.15;98601.91;4948484;28;20174;-21
2022/01/09 06:12:55;;;;;;;5.40;4.90;;;;;;;0.99;79.87;98608.00;4947813;28;20030;-21
2022/01/09 06:15:21;;;;;;;7.03;4.85;;;;;;;0.99;80.04;98595.00;4943878;28;20030;-21
2022/01/09 06:17:46;;;;;;;6.28;4.57;;;;;;;0.99;80.27;98596.72;4948142;28;20023;-21
2022/01/09 06:20:14;;;;;;;5.07;4.40;;;;;;;1.02;80.55;98601.91;4946829;28;20107;-21
2022/01/09 06:22:42;;;;;;;6.32;4.43;;;;;;;1.02;79.97;98599.31;4945343;28;20089;-21
2022/01/09 06:25:08;;;;;;;6.43;4.60;;;;;;;1.02;79.94;98602.78;4947707;28;20074;-21
2022/01/09 06:27:34;;;;;;;5.32;4.72;;;;;;;1.01;80.42;98600.19;4948941;28;20019;-21
2022/01/09 06:30:00;;;;;;;5.45;4.63;;;;;;;1.04;80.22;98600.19;4947562;28;20544;-21
2022/01/09 06:32:26;;;;;;;4.85;4.45;;;;;;;1.02;80.43;98592.41;4941605;28;20073;-21
2022/01/09 06:34:51;;;;;;;5.47;4.97;;;;;;;1.05;80.11;98604.50;4948338;28;20031;-21
2022/01/09 06:37:17;;;;;;;4.57;4.10;;;;;;;1.05;80.09;98595.84;4948214;29;20035;-22
2022/01/09 06:39:43;;;;;;;5.32;4.20;;;;;;;1.06;80.04;98593.25;4948702;28;20019;-21
2022/01/09 06:42:09;;;;;;;4.82;4.32;;;;;;;1.05;80.39;98591.53;4948305;29;20042;-22
2022/01/09 06:44:35;;;;;;;5.68;4.47;;;;;;;1.07;80.10;98599.31;4946883;28;20036;-21
2022/01/09 06:47:01;;;;;;;5.45;4.32;;;;;;;1.07;80.50;98601.91;4949196;28;20036;-21
2022/01/09 06:49:26;;;;;;;4.57;4.18;;;;;;;1.07;80.50;98592.38;4946490;29;20035;-21
2022/01/09 06:51:52;;;;;;;4.38;3.97;;;;;;;1.07;80.44;98589.78;4948032;29;20042;-21
2022/01/09 06:54:17;;;;;;;4.88;4.40;;;;;;;1.06;80.49;98595.84;4948925;28;20089;-21
2022/01/09 06:56:43;;;;;;;4.72;4.15;;;;;;;1.07;80.22;98594.97;4964576;28;20381;-21
2022/01/09 06:59:09;;;;;;;4.25;3.85;;;;;;;1.07;80.30;98594.97;4949179;28;20034;-21
2022/01/09 07:01:34;;;;;;;4.75;4.13;;;;;;;1.07;80.36;98592.38;4951808;28;20582;-21
2022/01/09 07:04:00;;;;;;;6.10;4.07;;;;;;;1.08;80.26;98595.84;4952864;29;20031;-21
2022/01/09 07:06:25;;;;;;;4.93;4.45;;;;;;;1.08;80.57;98601.91;4949948;29;20038;-21
2022/01/09 07:08:51;;;;;;;6.75;4.93;;;;;;;1.10;80.60;98600.16;4954907;28;20026;-21
2022/01/09 07:11:16;;;;;;;4.55;3.88;;;;;;;1.09;80.21;98597.56;4950703;28;20035;-21
2022/01/09 07:13:42;;;;;;;4.20;3.80;;;;;;;1.08;80.47;98598.44;4951718;28;20090;-21
2022/01/09 07:16:07;;;;;;;4.07;3.47;;;;;;;1.07;80.60;98591.53;4951180;28;20102;-21
2022/01/09 07:18:33;;;;;;;4.32;3.90;;;;;;;1.08;80.51;98596.72;4951580;28;20023;-21
2022/01/09 07:20:58;;;;;;;3.90;3.42;;;;;;;1.10;80.84;98604.50;4952849;28;20045;-22
2022/01/09 07:23:24;;;;;;;4.07;3.65;;;;;;;1.11;80.42;98607.09;4949138;29;20087;-21
2022/01/09 07:25:49;;;;;;;5.68;4.20;;;;;;;1.09;80.64;98601.03;4952289;28;20474;-21
2022/01/09 07:28:15;;;;;;;4.70;3.92;;;;;;;1.10;80.85;98605.34;4949601;29;20023;-21
2022/01/09 07:30:41;;;;;;;3.30;3.00;;;;;;;1.08;80.75;98607.09;4952195;28;20027;-21
2022/01/09 07:33:06;;;;;;;3.78;3.47;;;;;;;1.10;80.74;98610.53;4951344;28;20027;-21
2022/01/09 07:35:32;;;;;;;3.80;3.40;;;;;;;1.11;80.78;98612.28;4952951;28;20401;-21
2022/01/09 07:37:58;;;;;;;3.63;3.33;;;;;;;1.13;80.46;98622.63;4950947;28;20474;-21
2022/01/09 07:40:23;;;;;;;4.13;3.42;;;;;;;1.11;80.76;98625.28;4948378;28;20042;-21
2022/01/09 07:42:49;;;;;;;3.70;3.33;;;;;;;1.14;80.71;98627.81;4947445;28;20111;-21
2022/01/09 07:45:16;;;;;;;4.03;3.17;;;;;;;1.12;80.96;98634.78;4950399;28;20027;-21
2022/01/09 07:47:41;;;;;;;4.50;2.95;;;;;;;1.14;80.74;98648.59;4950580;28;20020;-21
2022/01/09 07:50:11;;;;;;;3.53;3.15;;;;;;;1.14;80.51;98646.00;4951464;28;20024;-21
2022/01/09 07:52:38;;;;;;;2.88;2.63;;;;;;;1.15;80.50;98645.16;4948093;29;20041;-21
2022/01/09 07:55:05;;;;;;;3.38;2.97;;;;;;;1.15;80.56;98645.16;4950845;29;20038;-21
2022/01/09 07:57:31;;;;;;;4.72;3.35;;;;;;;1.17;80.74;98652.06;4948467;28;20055;-21
2022/01/09 07:59:58;;;;;;;2.90;2.63;;;;;;;1.17;80.63;98647.75;4949035;28;20618;-21
2022/01/09 08:02:24;;;;;;;3.40;3.13;;;;;;;1.18;80.61;98646.00;4949137;28;20034;-21
2022/01/09 08:04:50;;;;;;;3.38;3.08;;;;;;;1.18;80.86;98659.88;4952467;29;20046;-21
2022/01/09 08:07:15;;;;;;;3.60;2.95;;;;;;;1.19;80.90;98655.50;4949616;28;20426;-21
2022/01/09 08:09:42;;;;;;;3.28;3.00;;;;;;;1.18;80.85;98652.06;4951575;28;20035;-21
2022/01/09 08:12:10;;;;;;;3.55;2.95;;;;;;;1.19;80.70;98652.91;4950903;28;20030;-21
2022/01/09 08:14:37;;;;;;;3.40;2.85;;;;;;;1.22;80.92;98652.91;4948110;29;20063;-21
2022/01/09 08:17:02;;;;;;;2.92;2.63;;;;;;;1.20;80.97;98652.06;4952174;29;20033;-21
2022/01/09 08:19:30;;;;;;;2.90;2.60;;;;;;;1.21;80.91;98648.59;4948345;28;20039;-21
2022/01/09 08:21:56;;;;;;;2.60;2.40;;;;;;;1.23;80.96;98657.25;4947453;28;20034;-21
2022/01/09 08:24:22;;;;;;;2.92;2.67;;;;;;;1.25;80.90;98660.69;4948026;28;20035;-21
2022/01/09 08:26:47;;;;;;;2.60;2.40;;;;;;;1.25;80.64;98655.50;4949135;29;20039;-21
2022/01/09 08:29:14;;;;;;;3.40;3.10;;;;;;;1.26;80.54;98665.00;4949043;28;20019;-21
2022/01/09 08:31:40;;;;;;;2.90;2.50;;;;;;;1.27;80.58;98670.19;4944769;28;20039;-21
2022/01/09 08:34:06;;;;;;;3.95;2.50;;;;;;;1.27;80.78;98671.97;4951521;29;20040;-21
2022/01/09 08:36:32;;;;;;;2.40;2.20;;;;;;;1.29;80.54;98672.81;4947855;28;20411;-21
2022/01/09 08:38:58;;;;;;;3.15;2.55;;;;;;;1.29;80.49;98685.78;4947948;28;20122;-21
2022/01/09 08:41:23;;;;;;;2.72;2.53;;;;;;;1.30;80.84;98684.06;4948582;29;20110;-21
2022/01/09 08:43:49;;;;;;;2.78;2.58;;;;;;;1.31;80.71;98676.28;4949688;28;20693;-21
2022/01/09 08:46:15;;;;;;;3.25;2.92;;;;;;;1.32;80.63;98678.00;4952120;28;20122;-21
2022/01/09 08:48:41;;;;;;;3.58;2.72;;;;;;;1.33;80.48;98681.47;4949329;28;20513;-21
2022/01/09 08:51:07;;;;;;;2.85;2.65;;;;;;;1.34;80.58;98686.66;4948537;29;20031;-21
2022/01/09 08:53:35;;;;;;;3.92;3.33;;;;;;;1.36;80.96;98690.09;4946274;28;20485;-21
2022/01/09 08:56:04;;;;;;;3.30;2.95;;;;;;;1.36;81.07;98686.63;4950119;28;20031;-21
2022/01/09 08:58:31;;;;;;;2.83;2.58;;;;;;;1.38;81.07;98696.16;4949197;28;20466;-21
2022/01/09 09:00:56;;;;;;;3.75;2.65;;;;;;;1.37;80.83;98690.97;4949698;28;20023;-21
2022/01/09 09:03:25;;;;;;;3.75;2.58;;;;;;;1.40;80.88;98694.41;4945138;28;20098;-21
2022/01/09 09:05:51;;;;;;;2.83;2.63;;;;;;;1.41;81.20;98698.72;4947900;28;20501;-21
2022/01/09 09:08:16;;;;;;;2.80;2.60;;;;;;;1.45;81.10;98703.91;4949052;28;20027;-21
2022/01/09 09:10:42;;;;;;;2.90;2.60;;;;;;;1.44;81.13;98697.00;4949437;28;20478;-21
2022/01/09 09:13:07;;;;;;;2.90;2.65;;;;;;;1.44;81.00;98703.06;4947667;28;20507;-21
2022/01/09 09:15:33;;;;;;;5.47;2.72;;;;;;;1.47;81.01;98708.22;4949232;28;20486;-21
2022/01/09 09:17:58;;;;;;;2.70;2.50;;;;;;;1.49;80.92;98711.69;4950019;28;20063;-21
2022/01/09 09:20:24;;;;;;;3.28;2.63;;;;;;;1.51;81.08;98717.78;4949470;28;20042;-21
2022/01/09 09:22:50;;;;;;;2.55;2.35;;;;;;;1.54;81.18;98714.28;4939770;28;20038;-21
2022/01/09 09:25:16;;;;;;;2.65;2.40;;;;;;;1.53;81.11;98720.34;4947119;28;20149;-21
2022/01/09 09:27:42;;;;;;;2.70;2.30;;;;;;;1.57;81.20;98726.41;4945920;28;20027;-21
2022/01/09 09:30:10;;;;;;;3.40;2.88;;;;;;;1.58;81.38;98729.00;4950239;28;20434;-21
2022/01/09 09:32:36;;;;;;;3.00;2.45;;;;;;;1.61;81.39;98726.41;4948046;28;20027;-20
2022/01/09 09:35:03;;;;;;;3.70;2.40;;;;;;;1.66;81.36;98736.75;4949044;28;20041;-21
2022/01/09 09:37:28;;;;;;;2.70;2.50;;;;;;;1.66;81.67;98736.75;4949737;28;20028;-21
2022/01/09 09:39:56;;;;;;;2.92;2.15;;;;;;;1.69;81.75;98743.66;4947314;29;20394;-21
2022/01/09 09:42:22;;;;;;;2.03;1.80;;;;;;;1.71;81.57;98741.94;4947282;28;20027;-21
2022/01/09 09:44:47;;;;;;;1.85;1.75;;;;;;;1.75;81.60;98748.84;4947514;29;20030;-21
2022/01/09 09:47:13;;;;;;;1.90;1.80;;;;;;;1.77;81.75;98749.72;4947366;28;20031;-21
2022/01/09 09:49:38;;;;;;;2.00;1.70;;;;;;;1.77;81.30;98757.53;4946660;28;20330;-21
2022/01/09 09:52:06;;;;;;;1.60;1.50;;;;;;;1.83;81.38;98756.63;4942678;28;20113;-21
2022/01/09 09:54:31;;;;;;;1.60;1.50;;;;;;;1.84;80.97;98761.81;4941774;28;20024;-21
2022/01/09 09:56:57;;;;;;;1.70;1.60;;;;;;;1.86;81.46;98765.25;4945327;28;20038;-21
2022/01/09 09:59:25;;;;;;;1.95;1.50;;;;;;;1.87;81.42;98760.94;4945822;28;20058;-21
2022/01/09 10:01:51;;;;;;;2.00;1.60;;;;;;;1.90;81.24;98766.97;4941751;28;20121;-21
2022/01/09 10:04:16;;;;;;;1.42;1.30;;;;;;;1.90;81.00;98764.38;4947622;28;20496;-21
2022/01/09 10:06:47;;;;;;;1.40;1.30;;;;;;;1.95;81.22;98776.50;4945763;29;20343;-21
2022/01/09 10:09:16;;;;;;;1.70;1.50;;;;;;;1.96;81.41;98773.88;4943050;28;20031;-21
2022/01/09 10:11:45;;;;;;;1.75;1.65;;;;;;;1.99;81.02;98778.19;4944146;28;20023;-21
2022/01/09 10:14:32;;;;;;;1.70;1.60;;;;;;;2.01;81.21;98786.88;4942674;28;20039;-21
2022/01/09 10:17:19;;;;;;;1.50;1.40;;;;;;;2.01;81.03;98792.06;4941905;29;20040;-21
2022/01/09 10:20:00;;;;;;;1.45;1.27;;;;;;;2.07;81.60;98802.47;4945102;28;20043;-21
2022/01/09 10:22:36;;;;;;;1.77;1.55;;;;;;;2.09;81.96;98802.44;4945673;28;20062;-21
2022/01/09 10:25:35;;;;;;;2.67;1.52;;;;;;;2.13;81.72;98812.81;4948563;29;20087;-21
2022/01/09 10:28:07;;;;;;;1.77;1.65;;;;;;;2.16;81.79;98815.41;4942866;28;20099;-22
2022/01/09 10:30:34;;;;;;;2.25;1.75;;;;;;;2.17;82.31;98814.53;4946887;28;20038;-22
2022/01/09 10:33:03;;;;;;;1.42;1.33;;;;;;;2.21;82.78;98819.72;4948036;28;20114;-22
2022/01/09 10:35:29;;;;;;;1.90;1.70;;;;;;;2.22;82.51;98824.03;4951397;29;20023;-27
2022/01/09 10:38:16;;;;;;;1.48;1.38;;;;;;;2.27;82.49;98824.91;4916472;29;20019;-22
2022/01/09 10:40:45;;;;;;;1.65;1.55;;;;;;;2.28;83.19;98831.84;4947874;28;20110;-21
2022/01/09 10:43:16;;;;;;;1.88;1.77;;;;;;;2.30;83.23;98832.69;4945278;28;20526;-21
2022/01/09 10:45:46;;;;;;;2.83;1.88;;;;;;;2.31;83.26;98827.47;4947698;28;20082;-21
2022/01/09 10:48:17;;;;;;;1.95;1.80;;;;;;;2.34;82.77;98836.13;4949920;28;20030;-21
2022/01/09 10:50:43;;;;;;;2.00;1.85;;;;;;;2.35;83.66;98835.25;4942954;28;20038;-21
2022/01/09 10:53:17;;;;;;;1.65;1.55;;;;;;;2.36;82.83;98827.44;4948089;28;20123;-22
2022/01/09 10:55:43;;;;;;;1.77;1.67;;;;;;;2.38;83.35;98830.94;4949632;28;20085;-21
2022/01/09 10:58:21;;;;;;;1.60;1.50;;;;;;;2.42;83.88;98836.97;4948923;28;20027;-22
2022/01/09 11:00:47;;;;;;;1.92;1.80;;;;;;;2.43;83.40;98839.56;4950309;28;20046;-22
2022/01/09 11:03:14;;;;;;;1.90;1.80;;;;;;;2.44;83.40;98845.63;4952167;28;20027;-22
2022/01/09 11:05:39;;;;;;;3.38;1.88;;;;;;;2.47;83.37;98855.16;4946747;29;20075;-22
2022/01/09 11:08:06;;;;;;;2.25;2.05;;;;;;;2.50;83.22;98852.56;4947785;28;20031;-22
2022/01/09 11:10:32;;;;;;;2.47;1.90;;;;;;;2.51;83.20;98859.47;4952338;28;20026;-22
2022/01/09 11:12:59;;;;;;;2.58;2.38;;;;;;;2.52;83.80;98862.06;4947941;28;20110;-22
2022/01/09 11:15:31;;;;;;;2.47;2.28;;;;;;;2.56;83.57;98866.38;4939477;28;20410;-22
2022/01/09 11:17:58;;;;;;;3.78;2.50;;;;;;;2.61;84.07;98866.38;4946921;28;21004;-22
2022/01/09 11:20:24;;;;;;;2.47;2.28;;;;;;;2.64;84.19;98870.69;4945984;28;20577;-22
2022/01/09 11:22:51;;;;;;;2.30;2.10;;;;;;;2.67;84.27;98876.72;4949829;28;20434;-22
2022/01/09 11:25:37;;;;;;;2.60;2.35;;;;;;;2.71;84.76;98881.91;4941924;28;20351;-22
2022/01/09 11:28:03;;;;;;;2.75;2.30;;;;;;;2.74;84.59;98881.91;4942629;28;20035;-22
2022/01/09 11:30:40;;;;;;;2.28;2.05;;;;;;;2.78;84.00;98896.63;4945237;28;20031;-21
2022/01/09 11:33:33;;;;;;;2.40;2.20;;;;;;;2.82;85.23;98894.00;4943474;28;20071;-21
2022/01/09 11:36:23;;;;;;;3.97;2.33;;;;;;;2.87;85.20;98898.31;4946336;29;20509;-21
2022/01/09 11:39:11;;;;;;;2.50;2.30;;;;;;;2.86;84.36;98899.22;4961452;28;20037;-21
2022/01/09 11:41:42;;;;;;;2.83;2.50;;;;;;;2.91;84.84;98895.69;4943575;29;20126;-21